SWA3452 KMKE-KPHX
Flight info
| Callsign | SWA3452 |
|---|---|
| Flight time | 3h 33m |
| Altitude | 36000 |
| Route | GREAS JAYEX OVR KP63C CUGGA OATHE GOSIP PUMPS GUP EAGUL6 |
| Aircraft | B38M/M-SDE1FGHILORVWXY/HB1 |
Departure
| Time | 2026-04-25 22:12 |
|---|---|
| Airport | General Mitchell International Airport (KMKE) |
Arrival
| Time | 2026-04-26 01:46 |
|---|---|
| Airport | Phoenix Sky Harbor International Airport (KPHX) |
| Time | Latitude | Longitude | Altitude | Speed | Heading |
|---|---|---|---|---|---|
| 2026-04-25 21:42 | 42.95022 | -87.89937 | 681 ft | 0 kts | 294° |
| 2026-04-25 22:01 | 42.95021 | -87.89935 | 684 ft | 2 kts | 294° |
| 2026-04-25 22:01 | 42.95015 | -87.89914 | 682 ft | 3 kts | 294° |
| 2026-04-25 22:02 | 42.94999 | -87.89879 | 686 ft | 4 kts | 325° |
| 2026-04-25 22:02 | 42.94981 | -87.89874 | 685 ft | 4 kts | 39° |
| 2026-04-25 22:02 | 42.94970 | -87.89902 | 686 ft | 4 kts | 73° |
| 2026-04-25 22:02 | 42.94968 | -87.89915 | 685 ft | 0 kts | 73° |
| 2026-04-25 22:07 | 42.94973 | -87.89893 | 687 ft | 7 kts | 73° |
| 2026-04-25 22:08 | 42.94984 | -87.89803 | 684 ft | 11 kts | 102° |
| 2026-04-25 22:08 | 42.94902 | -87.89707 | 687 ft | 23 kts | 171° |
| 2026-04-25 22:08 | 42.94717 | -87.89731 | 687 ft | 29 kts | 187° |
| 2026-04-25 22:08 | 42.94558 | -87.89864 | 686 ft | 27 kts | 242° |
| 2026-04-25 22:09 | 42.94457 | -87.90006 | 687 ft | 17 kts | 238° |
| 2026-04-25 22:09 | 42.94415 | -87.90173 | 686 ft | 22 kts | 252° |
| 2026-04-25 22:09 | 42.94357 | -87.90410 | 684 ft | 31 kts | 252° |
| 2026-04-25 22:09 | 42.94288 | -87.90699 | 690 ft | 33 kts | 251° |
| 2026-04-25 22:10 | 42.94218 | -87.90982 | 690 ft | 27 kts | 251° |
| 2026-04-25 22:10 | 42.94156 | -87.91233 | 684 ft | 28 kts | 251° |
| 2026-04-25 22:10 | 42.94094 | -87.91489 | 686 ft | 29 kts | 252° |
| 2026-04-25 22:10 | 42.94040 | -87.91710 | 683 ft | 23 kts | 252° |
| 2026-04-25 22:11 | 42.93947 | -87.91772 | 686 ft | 16 kts | 144° |
| 2026-04-25 22:11 | 42.93929 | -87.91690 | 687 ft | 3 kts | 71° |
| 2026-04-25 22:11 | 42.93929 | -87.91687 | 687 ft | 0 kts | 71° |
| 2026-04-25 22:11 | 42.93942 | -87.91637 | 683 ft | 30 kts | 71° |
| 2026-04-25 22:12 | 42.94092 | -87.91019 | 688 ft | 104 kts | 71° |
| 2026-04-25 22:12 | 42.94386 | -87.89801 | 702 ft | 161 kts | 71° |
| 2026-04-25 22:12 | 42.94715 | -87.88262 | 1302 ft | 175 kts | 73° |
| 2026-04-25 22:12 | 42.94937 | -87.87183 | 1846 ft | 180 kts | 72° |
| 2026-04-25 22:13 | 42.95532 | -87.85037 | 2910 ft | 186 kts | 54° |
| 2026-04-25 22:13 | 42.96501 | -87.83780 | 3550 ft | 198 kts | 30° |
| 2026-04-25 22:13 | 42.97854 | -87.83264 | 4260 ft | 211 kts | 2° |
| 2026-04-25 22:13 | 42.99296 | -87.83771 | 5014 ft | 222 kts | 334° |
| 2026-04-25 22:14 | 43.00473 | -87.85227 | 5685 ft | 236 kts | 306° |
| 2026-04-25 22:14 | 43.01065 | -87.87352 | 6456 ft | 249 kts | 282° |
| 2026-04-25 22:14 | 43.01207 | -87.89727 | 7230 ft | 258 kts | 273° |
| 2026-04-25 22:14 | 43.01155 | -87.92257 | 7915 ft | 272 kts | 269° |
| 2026-04-25 22:15 | 43.01004 | -87.94872 | 8749 ft | 280 kts | 266° |
| 2026-04-25 22:15 | 43.00819 | -87.97507 | 9765 ft | 278 kts | 265° |
| 2026-04-25 22:15 | 43.00632 | -88.00165 | 10524 ft | 288 kts | 261° |
| 2026-04-25 22:16 | 42.99907 | -88.05920 | 11355 ft | 324 kts | 260° |
| 2026-04-25 22:16 | 42.99531 | -88.09016 | 11938 ft | 334 kts | 260° |
| 2026-04-25 22:16 | 42.99154 | -88.12161 | 12763 ft | 336 kts | 260° |
| 2026-04-25 22:16 | 42.98779 | -88.15339 | 13499 ft | 341 kts | 259° |
| 2026-04-25 22:17 | 42.98399 | -88.18557 | 14224 ft | 345 kts | 259° |
| 2026-04-25 22:17 | 42.98017 | -88.21802 | 14907 ft | 348 kts | 259° |
| 2026-04-25 22:17 | 42.97629 | -88.25081 | 15599 ft | 351 kts | 259° |
| 2026-04-25 22:17 | 42.97238 | -88.28386 | 16254 ft | 354 kts | 259° |
| 2026-04-25 22:18 | 42.96847 | -88.31671 | 16917 ft | 356 kts | 259° |
| 2026-04-25 22:18 | 42.96448 | -88.35024 | 17579 ft | 359 kts | 259° |
| 2026-04-25 22:18 | 42.96044 | -88.38407 | 18199 ft | 362 kts | 259° |
| 2026-04-25 22:18 | 42.95636 | -88.41815 | 18768 ft | 365 kts | 259° |
| 2026-04-25 22:19 | 42.95224 | -88.45251 | 19292 ft | 368 kts | 259° |
| 2026-04-25 22:19 | 42.94948 | -88.47547 | 19650 ft | 371 kts | 259° |
| 2026-04-25 22:19 | 42.94384 | -88.52220 | 20345 ft | 375 kts | 259° |
| 2026-04-25 22:19 | 42.94147 | -88.55771 | 20834 ft | 380 kts | 270° |
| 2026-04-25 22:20 | 42.94274 | -88.59385 | 21354 ft | 383 kts | 270° |
| 2026-04-25 22:20 | 42.94383 | -88.63028 | 21855 ft | 386 kts | 270° |
| 2026-04-25 22:20 | 42.94496 | -88.66699 | 22349 ft | 389 kts | 270° |
| 2026-04-25 22:20 | 42.94611 | -88.70399 | 22834 ft | 391 kts | 270° |
| 2026-04-25 22:21 | 42.94724 | -88.74085 | 23309 ft | 395 kts | 270° |
| 2026-04-25 22:21 | 42.94839 | -88.77848 | 23763 ft | 397 kts | 270° |
| 2026-04-25 22:21 | 42.94953 | -88.81626 | 24181 ft | 399 kts | 270° |
| 2026-04-25 22:21 | 42.95067 | -88.85424 | 24626 ft | 400 kts | 270° |
| 2026-04-25 22:22 | 42.95179 | -88.89228 | 25056 ft | 402 kts | 270° |
| 2026-04-25 22:22 | 42.95253 | -88.91753 | 25350 ft | 402 kts | 270° |
| 2026-04-25 22:22 | 42.95364 | -88.95577 | 25780 ft | 403 kts | 270° |
| 2026-04-25 22:22 | 42.95474 | -88.99409 | 26192 ft | 405 kts | 270° |
| 2026-04-25 22:23 | 42.95582 | -89.03255 | 26600 ft | 406 kts | 270° |
| 2026-04-25 22:23 | 42.95690 | -89.07112 | 27005 ft | 407 kts | 270° |
| 2026-04-25 22:23 | 42.95797 | -89.10971 | 27399 ft | 408 kts | 270° |
| 2026-04-25 22:23 | 42.95903 | -89.14860 | 27781 ft | 410 kts | 270° |
| 2026-04-25 22:24 | 42.96008 | -89.18765 | 28164 ft | 411 kts | 270° |
| 2026-04-25 22:24 | 42.96112 | -89.22665 | 28539 ft | 412 kts | 270° |
| 2026-04-25 22:24 | 42.96215 | -89.26581 | 28897 ft | 414 kts | 270° |
| 2026-04-25 22:24 | 42.96317 | -89.30512 | 29249 ft | 415 kts | 270° |
| 2026-04-25 22:25 | 42.96418 | -89.34457 | 29590 ft | 416 kts | 270° |
| 2026-04-25 22:25 | 42.96517 | -89.38360 | 29925 ft | 418 kts | 270° |
| 2026-04-25 22:25 | 42.96616 | -89.42381 | 30238 ft | 419 kts | 270° |
| 2026-04-25 22:25 | 42.96714 | -89.46370 | 30523 ft | 420 kts | 270° |
| 2026-04-25 22:26 | 42.96810 | -89.50317 | 30792 ft | 422 kts | 270° |
| 2026-04-25 22:26 | 42.96906 | -89.54324 | 31089 ft | 422 kts | 270° |
| 2026-04-25 22:26 | 42.96999 | -89.58328 | 31464 ft | 421 kts | 269° |
| 2026-04-25 22:26 | 42.97092 | -89.62312 | 31841 ft | 420 kts | 269° |
| 2026-04-25 22:27 | 42.97183 | -89.66297 | 32205 ft | 419 kts | 269° |
| 2026-04-25 22:27 | 42.97272 | -89.70264 | 32569 ft | 417 kts | 269° |
| 2026-04-25 22:27 | 42.97360 | -89.74229 | 32922 ft | 416 kts | 269° |
| 2026-04-25 22:27 | 42.97446 | -89.78186 | 33262 ft | 415 kts | 269° |
| 2026-04-25 22:28 | 42.97530 | -89.82124 | 33611 ft | 414 kts | 268° |
| 2026-04-25 22:28 | 42.97613 | -89.86055 | 33948 ft | 413 kts | 268° |
| 2026-04-25 22:28 | 42.97695 | -89.89972 | 34320 ft | 410 kts | 268° |
| 2026-04-25 22:28 | 42.97775 | -89.93863 | 34654 ft | 408 kts | 268° |
| 2026-04-25 22:29 | 42.97852 | -89.97699 | 34884 ft | 408 kts | 268° |
| 2026-04-25 22:29 | 42.97928 | -90.01587 | 35099 ft | 409 kts | 268° |
| 2026-04-25 22:29 | 42.98004 | -90.05476 | 35317 ft | 409 kts | 268° |
| 2026-04-25 22:30 | 42.98153 | -90.13254 | 35755 ft | 409 kts | 268° |
| 2026-04-25 22:30 | 42.98226 | -90.17144 | 35945 ft | 410 kts | 268° |
| 2026-04-25 22:30 | 42.97988 | -90.23516 | 35986 ft | 403 kts | 252° |
| 2026-04-25 22:31 | 42.95720 | -90.31882 | 36009 ft | 403 kts | 248° |
| 2026-04-25 22:31 | 42.93653 | -90.38996 | 36016 ft | 403 kts | 247° |
| 2026-04-25 22:32 | 42.91540 | -90.46090 | 36019 ft | 403 kts | 246° |
| 2026-04-25 22:32 | 42.89419 | -90.53157 | 36021 ft | 403 kts | 246° |
| 2026-04-25 22:33 | 42.87304 | -90.60187 | 36022 ft | 403 kts | 246° |
| 2026-04-25 22:33 | 42.85175 | -90.67240 | 36024 ft | 402 kts | 246° |
| 2026-04-25 22:34 | 42.83038 | -90.74299 | 36019 ft | 403 kts | 246° |
| 2026-04-25 22:34 | 42.80892 | -90.81368 | 36019 ft | 403 kts | 246° |
| 2026-04-25 22:35 | 42.78747 | -90.88418 | 36012 ft | 402 kts | 246° |
| 2026-04-25 22:35 | 42.76600 | -90.95452 | 36012 ft | 403 kts | 246° |
| 2026-04-25 22:36 | 42.74462 | -91.02443 | 36013 ft | 403 kts | 246° |
| 2026-04-25 22:36 | 42.72305 | -91.09474 | 36006 ft | 402 kts | 246° |
| 2026-04-25 22:37 | 42.70143 | -91.16503 | 36012 ft | 403 kts | 246° |
| 2026-04-25 22:37 | 42.67977 | -91.23523 | 36009 ft | 402 kts | 246° |
| 2026-04-25 22:38 | 42.65807 | -91.30539 | 36007 ft | 403 kts | 246° |
| 2026-04-25 22:38 | 42.63632 | -91.37555 | 36005 ft | 402 kts | 246° |
| 2026-04-25 22:39 | 42.61466 | -91.44522 | 36004 ft | 402 kts | 246° |
| 2026-04-25 22:39 | 42.59278 | -91.51539 | 36006 ft | 402 kts | 246° |
| 2026-04-25 22:40 | 42.57104 | -91.58493 | 36010 ft | 402 kts | 246° |
| 2026-04-25 22:40 | 42.54912 | -91.65488 | 36012 ft | 402 kts | 246° |
| 2026-04-25 22:41 | 42.52723 | -91.72457 | 36018 ft | 401 kts | 246° |
| 2026-04-25 22:41 | 42.50530 | -91.79416 | 36024 ft | 401 kts | 246° |
| 2026-04-25 22:42 | 42.48334 | -91.86370 | 36029 ft | 402 kts | 246° |
| 2026-04-25 22:42 | 42.46129 | -91.93330 | 36022 ft | 401 kts | 246° |
| 2026-04-25 22:43 | 42.43938 | -92.00232 | 36019 ft | 401 kts | 246° |
| 2026-04-25 22:43 | 42.41728 | -92.07171 | 36023 ft | 401 kts | 246° |
| 2026-04-25 22:44 | 42.39515 | -92.14106 | 36017 ft | 401 kts | 246° |
| 2026-04-25 22:44 | 42.37299 | -92.21031 | 35992 ft | 401 kts | 246° |
| 2026-04-25 22:45 | 42.35095 | -92.27902 | 35986 ft | 401 kts | 245° |
| 2026-04-25 22:45 | 42.32872 | -92.34812 | 35988 ft | 400 kts | 245° |
| 2026-04-25 22:46 | 42.30648 | -92.41708 | 35985 ft | 400 kts | 245° |
| 2026-04-25 22:46 | 42.28416 | -92.48613 | 35979 ft | 400 kts | 245° |
| 2026-04-25 22:47 | 42.26182 | -92.55505 | 35976 ft | 400 kts | 245° |
| 2026-04-25 22:47 | 42.23948 | -92.62378 | 35974 ft | 400 kts | 245° |
| 2026-04-25 22:48 | 42.21720 | -92.69216 | 35975 ft | 400 kts | 245° |
| 2026-04-25 22:48 | 42.19479 | -92.76078 | 35980 ft | 400 kts | 245° |
| 2026-04-25 22:49 | 42.17234 | -92.82935 | 35988 ft | 400 kts | 245° |
| 2026-04-25 22:49 | 42.14986 | -92.89783 | 35987 ft | 399 kts | 245° |
| 2026-04-25 22:50 | 42.12747 | -92.96585 | 35982 ft | 399 kts | 245° |
| 2026-04-25 22:50 | 42.10491 | -93.03422 | 35980 ft | 399 kts | 245° |
| 2026-04-25 22:51 | 42.08231 | -93.10255 | 35978 ft | 399 kts | 245° |
| 2026-04-25 22:51 | 42.05970 | -93.17076 | 35974 ft | 399 kts | 245° |
| 2026-04-25 22:52 | 42.03702 | -93.23899 | 35966 ft | 399 kts | 245° |
| 2026-04-25 22:52 | 42.01814 | -93.29564 | 35960 ft | 399 kts | 245° |
| 2026-04-25 22:53 | 41.99157 | -93.37520 | 35962 ft | 399 kts | 245° |
| 2026-04-25 22:53 | 41.96893 | -93.44281 | 35963 ft | 399 kts | 245° |
| 2026-04-25 22:54 | 41.94603 | -93.51101 | 35962 ft | 399 kts | 245° |
| 2026-04-25 22:54 | 41.92314 | -93.57904 | 35963 ft | 400 kts | 245° |
| 2026-04-25 22:55 | 41.90018 | -93.64706 | 35963 ft | 400 kts | 245° |
| 2026-04-25 22:55 | 41.87730 | -93.71474 | 35963 ft | 400 kts | 245° |
| 2026-04-25 22:56 | 41.85424 | -93.78273 | 35958 ft | 400 kts | 245° |
| 2026-04-25 22:56 | 41.83111 | -93.85077 | 35949 ft | 400 kts | 245° |
| 2026-04-25 22:57 | 41.80811 | -93.91829 | 35938 ft | 401 kts | 245° |
| 2026-04-25 22:57 | 41.78489 | -93.98629 | 35929 ft | 401 kts | 245° |
| 2026-04-25 22:58 | 41.76160 | -94.05429 | 35928 ft | 401 kts | 245° |
| 2026-04-25 22:58 | 41.73827 | -94.12226 | 35926 ft | 401 kts | 245° |
| 2026-04-25 22:59 | 41.71490 | -94.19018 | 35930 ft | 401 kts | 245° |
| 2026-04-25 22:59 | 41.69144 | -94.25819 | 35932 ft | 402 kts | 245° |
| 2026-04-25 23:00 | 41.66814 | -94.32560 | 35936 ft | 402 kts | 245° |
| 2026-04-25 23:00 | 41.64463 | -94.39342 | 35937 ft | 402 kts | 245° |
| 2026-04-25 23:01 | 41.62101 | -94.46142 | 35939 ft | 402 kts | 245° |
| 2026-04-25 23:01 | 41.59738 | -94.52926 | 35943 ft | 403 kts | 245° |
| 2026-04-25 23:02 | 41.57371 | -94.59707 | 35945 ft | 403 kts | 245° |
| 2026-04-25 23:02 | 41.54999 | -94.66484 | 35935 ft | 403 kts | 245° |
| 2026-04-25 23:03 | 41.52632 | -94.73232 | 35941 ft | 403 kts | 245° |
| 2026-04-25 23:03 | 41.50248 | -94.80011 | 35923 ft | 403 kts | 245° |
| 2026-04-25 23:04 | 41.48260 | -94.85651 | 35916 ft | 403 kts | 245° |
| 2026-04-25 23:04 | 41.45462 | -94.93572 | 35916 ft | 403 kts | 245° |
| 2026-04-25 23:05 | 41.43082 | -95.00291 | 35918 ft | 404 kts | 245° |
| 2026-04-25 23:05 | 41.40677 | -95.07065 | 35919 ft | 404 kts | 245° |
| 2026-04-25 23:06 | 41.38273 | -95.13822 | 35914 ft | 404 kts | 245° |
| 2026-04-25 23:06 | 41.35854 | -95.20603 | 35914 ft | 404 kts | 245° |
| 2026-04-25 23:07 | 41.33437 | -95.27368 | 35909 ft | 404 kts | 245° |
| 2026-04-25 23:07 | 41.31423 | -95.32995 | 35905 ft | 405 kts | 245° |
| 2026-04-25 23:08 | 41.28606 | -95.40843 | 35902 ft | 405 kts | 245° |
| 2026-04-25 23:08 | 41.26177 | -95.47595 | 35902 ft | 405 kts | 245° |
| 2026-04-25 23:09 | 41.24153 | -95.53208 | 35912 ft | 405 kts | 245° |
| 2026-04-25 23:09 | 41.21718 | -95.59948 | 35905 ft | 405 kts | 245° |
| 2026-04-25 23:10 | 41.19274 | -95.66697 | 35901 ft | 405 kts | 245° |
| 2026-04-25 23:10 | 41.17401 | -95.73683 | 35904 ft | 403 kts | 264° |
| 2026-04-25 23:11 | 41.17471 | -95.77410 | 35909 ft | 406 kts | 276° |
| 2026-04-25 23:11 | 41.17926 | -95.81119 | 35908 ft | 408 kts | 277° |
| 2026-04-25 23:11 | 41.18982 | -95.88528 | 35867 ft | 408 kts | 279° |
| 2026-04-25 23:12 | 41.20112 | -95.95923 | 35874 ft | 408 kts | 279° |
| 2026-04-25 23:12 | 41.21260 | -96.03320 | 35890 ft | 408 kts | 279° |
| 2026-04-25 23:13 | 41.22403 | -96.10696 | 35874 ft | 408 kts | 279° |
| 2026-04-25 23:13 | 41.23534 | -96.18028 | 35874 ft | 407 kts | 279° |
| 2026-04-25 23:14 | 41.24670 | -96.25423 | 35877 ft | 407 kts | 279° |
| 2026-04-25 23:14 | 41.25799 | -96.32804 | 35884 ft | 407 kts | 279° |
| 2026-04-25 23:15 | 41.26914 | -96.40130 | 35890 ft | 406 kts | 279° |
| 2026-04-25 23:15 | 41.28043 | -96.47489 | 35900 ft | 405 kts | 280° |
| 2026-04-25 23:16 | 41.29087 | -96.54461 | 35898 ft | 406 kts | 279° |
| 2026-04-25 23:16 | 41.30187 | -96.61823 | 35899 ft | 405 kts | 279° |
| 2026-04-25 23:17 | 41.31287 | -96.69183 | 35896 ft | 405 kts | 279° |
| 2026-04-25 23:17 | 41.32372 | -96.76478 | 35897 ft | 404 kts | 278° |
| 2026-04-25 23:18 | 41.33460 | -96.83831 | 35889 ft | 406 kts | 278° |
| 2026-04-25 23:18 | 41.34547 | -96.91176 | 35882 ft | 405 kts | 279° |
| 2026-04-25 23:19 | 41.35624 | -96.98480 | 35882 ft | 401 kts | 278° |
| 2026-04-25 23:19 | 41.36684 | -97.05765 | 35904 ft | 402 kts | 278° |
| 2026-04-25 23:20 | 41.37710 | -97.12848 | 36014 ft | 406 kts | 278° |
| 2026-04-25 23:20 | 41.38774 | -97.20189 | 35951 ft | 401 kts | 278° |
| 2026-04-25 23:21 | 41.39828 | -97.27503 | 35953 ft | 402 kts | 278° |
| 2026-04-25 23:21 | 41.40876 | -97.34817 | 35952 ft | 402 kts | 278° |
| 2026-04-25 23:22 | 41.41920 | -97.42129 | 35952 ft | 401 kts | 278° |
| 2026-04-25 23:23 | 41.43474 | -97.53091 | 35954 ft | 401 kts | 278° |
| 2026-04-25 23:23 | 41.44497 | -97.60344 | 35813 ft | 401 kts | 278° |
| 2026-04-25 23:24 | 41.45517 | -97.67606 | 35960 ft | 398 kts | 278° |
| 2026-04-25 23:24 | 41.46526 | -97.74832 | 35956 ft | 396 kts | 278° |
| 2026-04-25 23:25 | 41.47533 | -97.82058 | 35967 ft | 396 kts | 278° |
| 2026-04-25 23:25 | 41.48535 | -97.89292 | 35981 ft | 396 kts | 278° |
| 2026-04-25 23:26 | 41.49167 | -97.96533 | 35970 ft | 391 kts | 263° |
| 2026-04-25 23:26 | 41.48485 | -98.00035 | 35976 ft | 393 kts | 248° |
| 2026-04-25 23:26 | 41.47092 | -98.03181 | 35980 ft | 398 kts | 235° |
| 2026-04-25 23:27 | 41.43453 | -98.08810 | 35970 ft | 402 kts | 231° |
| 2026-04-25 23:27 | 41.39642 | -98.14222 | 35967 ft | 403 kts | 230° |
| 2026-04-25 23:28 | 41.35748 | -98.19608 | 35964 ft | 403 kts | 230° |
| 2026-04-25 23:28 | 41.31838 | -98.24971 | 35965 ft | 403 kts | 230° |
| 2026-04-25 23:29 | 41.27935 | -98.30310 | 35962 ft | 403 kts | 230° |
| 2026-04-25 23:29 | 41.24019 | -98.35658 | 35956 ft | 403 kts | 230° |
| 2026-04-25 23:30 | 41.20105 | -98.40992 | 35955 ft | 403 kts | 230° |
| 2026-04-25 23:30 | 41.16215 | -98.46284 | 35955 ft | 403 kts | 230° |
| 2026-04-25 23:31 | 41.12286 | -98.51619 | 35953 ft | 403 kts | 230° |
| 2026-04-25 23:31 | 41.08358 | -98.56943 | 35957 ft | 403 kts | 230° |
| 2026-04-25 23:32 | 41.04432 | -98.62255 | 35957 ft | 403 kts | 230° |
| 2026-04-25 23:32 | 41.00527 | -98.67529 | 35965 ft | 404 kts | 230° |
| 2026-04-25 23:33 | 40.96629 | -98.72784 | 35967 ft | 404 kts | 230° |
| 2026-04-25 23:33 | 40.92692 | -98.78081 | 35968 ft | 404 kts | 230° |
| 2026-04-25 23:34 | 40.88751 | -98.83376 | 35967 ft | 404 kts | 230° |
| 2026-04-25 23:34 | 40.84804 | -98.88668 | 35961 ft | 403 kts | 230° |
| 2026-04-25 23:35 | 40.80888 | -98.93909 | 35956 ft | 403 kts | 230° |
| 2026-04-25 23:35 | 40.76933 | -98.99194 | 35953 ft | 403 kts | 230° |
| 2026-04-25 23:36 | 40.72994 | -99.04447 | 35959 ft | 403 kts | 230° |
| 2026-04-25 23:36 | 40.69046 | -99.09702 | 35954 ft | 403 kts | 231° |
| 2026-04-25 23:37 | 40.65127 | -99.14910 | 35960 ft | 402 kts | 231° |
| 2026-04-25 23:37 | 40.61187 | -99.20137 | 35963 ft | 402 kts | 231° |
| 2026-04-25 23:38 | 40.57242 | -99.25361 | 35952 ft | 402 kts | 231° |
| 2026-04-25 23:38 | 40.53302 | -99.30569 | 35949 ft | 401 kts | 231° |
| 2026-04-25 23:39 | 40.49371 | -99.35755 | 35949 ft | 400 kts | 231° |
| 2026-04-25 23:39 | 40.45436 | -99.40939 | 35950 ft | 400 kts | 231° |
| 2026-04-25 23:40 | 40.41510 | -99.46100 | 35953 ft | 400 kts | 231° |
| 2026-04-25 23:40 | 40.37581 | -99.51257 | 35950 ft | 399 kts | 231° |
| 2026-04-25 23:41 | 40.33654 | -99.56402 | 35952 ft | 398 kts | 232° |
| 2026-04-25 23:41 | 40.29756 | -99.61501 | 35953 ft | 398 kts | 232° |
| 2026-04-25 23:42 | 40.25832 | -99.66624 | 35957 ft | 397 kts | 232° |
| 2026-04-25 23:42 | 40.21913 | -99.71732 | 35953 ft | 397 kts | 232° |
| 2026-04-25 23:43 | 40.17999 | -99.76825 | 35950 ft | 396 kts | 232° |
| 2026-04-25 23:43 | 40.14089 | -99.81905 | 35946 ft | 396 kts | 232° |
| 2026-04-25 23:44 | 40.10179 | -99.86975 | 35949 ft | 396 kts | 232° |
| 2026-04-25 23:44 | 40.06273 | -99.92031 | 35944 ft | 395 kts | 232° |
| 2026-04-25 23:45 | 40.02390 | -99.97049 | 35942 ft | 395 kts | 232° |
| 2026-04-25 23:45 | 39.98486 | -100.02087 | 35941 ft | 394 kts | 232° |
| 2026-04-25 23:46 | 39.94585 | -100.07111 | 35945 ft | 394 kts | 232° |
| 2026-04-25 23:46 | 39.90689 | -100.12120 | 35943 ft | 394 kts | 232° |
| 2026-04-25 23:47 | 39.86784 | -100.17132 | 35946 ft | 393 kts | 232° |
| 2026-04-25 23:47 | 39.82883 | -100.22130 | 35936 ft | 393 kts | 232° |
| 2026-04-25 23:48 | 39.78981 | -100.27122 | 35936 ft | 393 kts | 231° |
| 2026-04-25 23:48 | 39.75101 | -100.32078 | 35934 ft | 393 kts | 231° |
| 2026-04-25 23:49 | 39.71198 | -100.37054 | 35933 ft | 393 kts | 231° |
| 2026-04-25 23:49 | 39.67285 | -100.42034 | 35934 ft | 393 kts | 231° |
| 2026-04-25 23:50 | 39.63377 | -100.47000 | 35937 ft | 393 kts | 231° |
| 2026-04-25 23:50 | 39.59492 | -100.51929 | 35936 ft | 393 kts | 231° |
| 2026-04-25 23:51 | 39.55581 | -100.56882 | 35938 ft | 393 kts | 231° |
| 2026-04-25 23:51 | 39.51666 | -100.61833 | 35937 ft | 393 kts | 231° |
| 2026-04-25 23:52 | 39.47748 | -100.66781 | 35935 ft | 394 kts | 231° |
| 2026-04-25 23:52 | 39.43819 | -100.71735 | 35935 ft | 394 kts | 231° |
| 2026-04-25 23:53 | 39.39889 | -100.76682 | 35949 ft | 394 kts | 231° |
| 2026-04-25 23:53 | 39.35956 | -100.81625 | 35943 ft | 394 kts | 231° |
| 2026-04-25 23:54 | 39.32087 | -100.86556 | 35921 ft | 390 kts | 237° |
| 2026-04-25 23:54 | 39.29173 | -100.92321 | 35938 ft | 384 kts | 242° |
| 2026-04-25 23:55 | 39.26747 | -100.97148 | 35935 ft | 385 kts | 242° |
| 2026-04-25 23:55 | 39.23838 | -101.02944 | 35937 ft | 385 kts | 242° |
| 2026-04-25 23:56 | 39.20926 | -101.08738 | 35930 ft | 385 kts | 242° |
| 2026-04-25 23:56 | 39.18011 | -101.14526 | 35923 ft | 385 kts | 242° |
| 2026-04-25 23:57 | 39.15088 | -101.20321 | 35919 ft | 385 kts | 242° |
| 2026-04-25 23:57 | 39.12164 | -101.26109 | 35909 ft | 385 kts | 242° |
| 2026-04-25 23:58 | 39.09241 | -101.31882 | 35908 ft | 385 kts | 242° |
| 2026-04-25 23:58 | 39.06327 | -101.37626 | 35907 ft | 386 kts | 242° |
| 2026-04-25 23:59 | 39.03392 | -101.43403 | 35901 ft | 385 kts | 242° |
| 2026-04-25 23:59 | 39.00456 | -101.49171 | 35898 ft | 385 kts | 242° |
| 2026-04-26 00:00 | 38.97517 | -101.54935 | 35894 ft | 385 kts | 242° |
| 2026-04-26 00:00 | 38.94579 | -101.60688 | 35896 ft | 385 kts | 242° |
| 2026-04-26 00:01 | 38.91656 | -101.66400 | 35889 ft | 385 kts | 242° |
| 2026-04-26 00:01 | 38.88713 | -101.72140 | 35883 ft | 385 kts | 242° |
| 2026-04-26 00:02 | 38.85767 | -101.77882 | 35876 ft | 384 kts | 242° |
| 2026-04-26 00:02 | 38.83220 | -101.83857 | 35873 ft | 381 kts | 246° |
| 2026-04-26 00:03 | 38.80722 | -101.89855 | 35874 ft | 381 kts | 246° |
| 2026-04-26 00:03 | 38.78203 | -101.95839 | 35866 ft | 381 kts | 246° |
| 2026-04-26 00:04 | 38.75676 | -102.01822 | 35865 ft | 381 kts | 246° |
| 2026-04-26 00:04 | 38.73163 | -102.07760 | 35853 ft | 381 kts | 246° |
| 2026-04-26 00:05 | 38.70635 | -102.13722 | 35851 ft | 381 kts | 246° |
| 2026-04-26 00:05 | 38.68100 | -102.19690 | 35850 ft | 381 kts | 246° |
| 2026-04-26 00:06 | 38.65558 | -102.25662 | 35850 ft | 381 kts | 246° |
| 2026-04-26 00:06 | 38.63037 | -102.31574 | 35844 ft | 381 kts | 246° |
| 2026-04-26 00:07 | 38.60495 | -102.37523 | 35844 ft | 381 kts | 246° |
| 2026-04-26 00:07 | 38.57951 | -102.43467 | 35837 ft | 381 kts | 246° |
| 2026-04-26 00:08 | 38.55401 | -102.49413 | 35830 ft | 381 kts | 246° |
| 2026-04-26 00:08 | 38.52852 | -102.55348 | 35826 ft | 380 kts | 246° |
| 2026-04-26 00:09 | 38.50314 | -102.61243 | 35832 ft | 381 kts | 246° |
| 2026-04-26 00:09 | 38.47761 | -102.67163 | 35813 ft | 380 kts | 246° |
| 2026-04-26 00:10 | 38.45201 | -102.73088 | 35819 ft | 380 kts | 246° |
| 2026-04-26 00:10 | 38.42643 | -102.78997 | 35812 ft | 380 kts | 245° |
| 2026-04-26 00:11 | 38.40088 | -102.84889 | 35814 ft | 379 kts | 245° |
| 2026-04-26 00:11 | 38.37544 | -102.90742 | 35823 ft | 379 kts | 245° |
| 2026-04-26 00:12 | 38.34986 | -102.96621 | 35810 ft | 379 kts | 245° |
| 2026-04-26 00:12 | 38.32429 | -103.02484 | 35802 ft | 378 kts | 245° |
| 2026-04-26 00:13 | 38.29876 | -103.08326 | 35803 ft | 377 kts | 245° |
| 2026-04-26 00:13 | 38.27324 | -103.14157 | 35805 ft | 376 kts | 245° |
| 2026-04-26 00:14 | 38.24770 | -103.19982 | 35816 ft | 376 kts | 245° |
| 2026-04-26 00:14 | 38.23491 | -103.22893 | 36026 ft | 376 kts | 245° |
| 2026-04-26 00:14 | 38.22233 | -103.25756 | 36287 ft | 376 kts | 245° |
| 2026-04-26 00:14 | 38.20956 | -103.28658 | 36533 ft | 376 kts | 245° |
| 2026-04-26 00:15 | 38.19681 | -103.31553 | 36787 ft | 375 kts | 245° |
| 2026-04-26 00:15 | 38.18408 | -103.34444 | 37031 ft | 374 kts | 245° |
| 2026-04-26 00:15 | 38.17129 | -103.37343 | 37261 ft | 374 kts | 246° |
| 2026-04-26 00:15 | 38.15859 | -103.40219 | 37481 ft | 373 kts | 246° |
| 2026-04-26 00:16 | 38.14586 | -103.43099 | 37702 ft | 373 kts | 246° |
| 2026-04-26 00:16 | 38.13317 | -103.45967 | 37852 ft | 373 kts | 246° |
| 2026-04-26 00:16 | 38.12043 | -103.48846 | 37857 ft | 373 kts | 246° |
| 2026-04-26 00:17 | 38.09508 | -103.54563 | 37862 ft | 371 kts | 246° |
| 2026-04-26 00:17 | 38.06980 | -103.60256 | 37860 ft | 370 kts | 246° |
| 2026-04-26 00:18 | 38.04458 | -103.65924 | 37849 ft | 370 kts | 246° |
| 2026-04-26 00:18 | 38.01925 | -103.71609 | 37832 ft | 370 kts | 246° |
| 2026-04-26 00:19 | 37.99392 | -103.77282 | 37815 ft | 370 kts | 246° |
| 2026-04-26 00:19 | 37.96853 | -103.82957 | 37797 ft | 370 kts | 246° |
| 2026-04-26 00:20 | 37.94328 | -103.88595 | 37774 ft | 369 kts | 246° |
| 2026-04-26 00:20 | 37.91788 | -103.94253 | 37753 ft | 369 kts | 245° |
| 2026-04-26 00:21 | 37.89244 | -103.99912 | 37757 ft | 369 kts | 245° |
| 2026-04-26 00:21 | 37.86700 | -104.05560 | 37751 ft | 369 kts | 245° |
| 2026-04-26 00:22 | 37.84156 | -104.11197 | 37752 ft | 369 kts | 245° |
| 2026-04-26 00:22 | 37.81623 | -104.16802 | 37753 ft | 368 kts | 245° |
| 2026-04-26 00:23 | 37.79082 | -104.22415 | 37746 ft | 368 kts | 245° |
| 2026-04-26 00:23 | 37.76538 | -104.28023 | 37751 ft | 368 kts | 245° |
| 2026-04-26 00:24 | 37.73989 | -104.33636 | 37748 ft | 367 kts | 245° |
| 2026-04-26 00:24 | 37.71443 | -104.39233 | 37746 ft | 366 kts | 245° |
| 2026-04-26 00:25 | 37.68915 | -104.44780 | 37755 ft | 366 kts | 245° |
| 2026-04-26 00:25 | 37.66375 | -104.50349 | 37755 ft | 365 kts | 245° |
| 2026-04-26 00:26 | 37.63835 | -104.55904 | 37739 ft | 364 kts | 245° |
| 2026-04-26 00:26 | 37.61361 | -104.61462 | 37736 ft | 362 kts | 246° |
| 2026-04-26 00:27 | 37.58967 | -104.67007 | 37728 ft | 362 kts | 246° |
| 2026-04-26 00:27 | 37.56548 | -104.72592 | 37735 ft | 362 kts | 246° |
| 2026-04-26 00:28 | 37.54129 | -104.78165 | 37740 ft | 362 kts | 246° |
| 2026-04-26 00:28 | 37.51722 | -104.83701 | 37734 ft | 362 kts | 246° |
| 2026-04-26 00:29 | 37.49298 | -104.89268 | 37738 ft | 362 kts | 246° |
| 2026-04-26 00:29 | 37.46867 | -104.94840 | 37742 ft | 363 kts | 246° |
| 2026-04-26 00:30 | 37.44428 | -105.00421 | 37752 ft | 364 kts | 246° |
| 2026-04-26 00:30 | 37.41980 | -105.06012 | 37755 ft | 365 kts | 246° |
| 2026-04-26 00:31 | 37.39522 | -105.11618 | 37759 ft | 366 kts | 245° |
| 2026-04-26 00:31 | 37.37059 | -105.17225 | 37759 ft | 367 kts | 245° |
| 2026-04-26 00:32 | 37.34606 | -105.22800 | 37772 ft | 367 kts | 245° |
| 2026-04-26 00:32 | 37.30887 | -105.31234 | 37778 ft | 368 kts | 245° |
| 2026-04-26 00:33 | 37.28398 | -105.36864 | 37770 ft | 367 kts | 245° |
| 2026-04-26 00:33 | 37.25918 | -105.42466 | 37769 ft | 367 kts | 245° |
| 2026-04-26 00:34 | 37.23444 | -105.48046 | 37770 ft | 367 kts | 245° |
| 2026-04-26 00:34 | 37.20957 | -105.53643 | 37771 ft | 366 kts | 245° |
| 2026-04-26 00:35 | 37.18478 | -105.59215 | 37774 ft | 365 kts | 245° |
| 2026-04-26 00:35 | 37.15994 | -105.64785 | 37764 ft | 365 kts | 245° |
| 2026-04-26 00:36 | 37.13515 | -105.70340 | 37770 ft | 365 kts | 245° |
| 2026-04-26 00:36 | 37.11037 | -105.75878 | 37757 ft | 364 kts | 245° |
| 2026-04-26 00:37 | 37.08564 | -105.81397 | 37747 ft | 365 kts | 245° |
| 2026-04-26 00:37 | 37.06071 | -105.86951 | 37744 ft | 366 kts | 245° |
| 2026-04-26 00:38 | 37.03576 | -105.92503 | 37738 ft | 367 kts | 245° |
| 2026-04-26 00:38 | 37.01069 | -105.98070 | 37746 ft | 368 kts | 245° |
| 2026-04-26 00:39 | 36.98543 | -106.03663 | 37738 ft | 369 kts | 245° |
| 2026-04-26 00:39 | 36.96445 | -106.08313 | 37748 ft | 369 kts | 245° |
| 2026-04-26 00:40 | 36.93502 | -106.14818 | 37782 ft | 370 kts | 245° |
| 2026-04-26 00:40 | 36.90964 | -106.20418 | 37770 ft | 370 kts | 245° |
| 2026-04-26 00:41 | 36.88422 | -106.26011 | 37780 ft | 369 kts | 245° |
| 2026-04-26 00:41 | 36.86311 | -106.30654 | 37765 ft | 369 kts | 244° |
| 2026-04-26 00:42 | 36.83767 | -106.36237 | 37779 ft | 370 kts | 244° |
| 2026-04-26 00:42 | 36.81218 | -106.41824 | 37786 ft | 369 kts | 244° |
| 2026-04-26 00:43 | 36.78691 | -106.47351 | 37778 ft | 369 kts | 244° |
| 2026-04-26 00:43 | 36.76152 | -106.52896 | 37767 ft | 367 kts | 244° |
| 2026-04-26 00:44 | 36.73613 | -106.58430 | 37764 ft | 366 kts | 244° |
| 2026-04-26 00:44 | 36.71081 | -106.63942 | 37761 ft | 366 kts | 244° |
| 2026-04-26 00:45 | 36.68549 | -106.69444 | 37755 ft | 365 kts | 244° |
| 2026-04-26 00:45 | 36.66039 | -106.74890 | 37760 ft | 365 kts | 244° |
| 2026-04-26 00:46 | 36.63512 | -106.80364 | 37749 ft | 364 kts | 244° |
| 2026-04-26 00:46 | 36.60983 | -106.85833 | 37758 ft | 364 kts | 244° |
| 2026-04-26 00:47 | 36.58456 | -106.91288 | 37757 ft | 363 kts | 244° |
| 2026-04-26 00:47 | 36.55931 | -106.96729 | 37750 ft | 363 kts | 244° |
| 2026-04-26 00:48 | 36.53405 | -107.02165 | 37752 ft | 362 kts | 244° |
| 2026-04-26 00:48 | 36.50886 | -107.07577 | 37762 ft | 362 kts | 244° |
| 2026-04-26 00:49 | 36.48363 | -107.12987 | 37756 ft | 362 kts | 244° |
| 2026-04-26 00:49 | 36.45839 | -107.18394 | 37766 ft | 361 kts | 244° |
| 2026-04-26 00:50 | 36.43328 | -107.23761 | 37761 ft | 361 kts | 243° |
| 2026-04-26 00:50 | 36.40807 | -107.29143 | 37765 ft | 361 kts | 243° |
| 2026-04-26 00:51 | 36.38277 | -107.34534 | 37783 ft | 361 kts | 243° |
| 2026-04-26 00:51 | 36.35751 | -107.39908 | 37784 ft | 360 kts | 243° |
| 2026-04-26 00:52 | 36.33223 | -107.45281 | 37790 ft | 360 kts | 243° |
| 2026-04-26 00:52 | 36.30715 | -107.50605 | 37787 ft | 360 kts | 243° |
| 2026-04-26 00:53 | 36.28185 | -107.55963 | 37794 ft | 360 kts | 243° |
| 2026-04-26 00:53 | 36.25656 | -107.61315 | 37793 ft | 359 kts | 243° |
| 2026-04-26 00:54 | 36.23125 | -107.66660 | 37802 ft | 360 kts | 243° |
| 2026-04-26 00:54 | 36.20231 | -107.71733 | 37792 ft | 362 kts | 237° |
| 2026-04-26 00:55 | 36.17148 | -107.76631 | 37803 ft | 362 kts | 237° |
| 2026-04-26 00:55 | 36.14076 | -107.81575 | 37790 ft | 362 kts | 237° |
| 2026-04-26 00:56 | 36.11014 | -107.86514 | 37795 ft | 361 kts | 237° |
| 2026-04-26 00:56 | 36.07947 | -107.91455 | 37799 ft | 362 kts | 237° |
| 2026-04-26 00:57 | 36.04888 | -107.96376 | 37796 ft | 361 kts | 237° |
| 2026-04-26 00:57 | 36.01831 | -108.01287 | 37789 ft | 360 kts | 237° |
| 2026-04-26 00:58 | 35.98769 | -108.06199 | 37782 ft | 360 kts | 237° |
| 2026-04-26 00:58 | 35.95712 | -108.11096 | 37783 ft | 360 kts | 237° |
| 2026-04-26 00:59 | 35.92668 | -108.15965 | 37778 ft | 360 kts | 237° |
| 2026-04-26 00:59 | 35.89605 | -108.20859 | 37782 ft | 360 kts | 237° |
| 2026-04-26 01:00 | 35.86538 | -108.25750 | 37782 ft | 360 kts | 237° |
| 2026-04-26 01:00 | 35.83470 | -108.30637 | 37783 ft | 360 kts | 237° |
| 2026-04-26 01:01 | 35.80395 | -108.35528 | 37783 ft | 361 kts | 237° |
| 2026-04-26 01:01 | 35.77322 | -108.40409 | 37784 ft | 361 kts | 237° |
| 2026-04-26 01:02 | 35.74264 | -108.45261 | 37784 ft | 360 kts | 237° |
| 2026-04-26 01:02 | 35.71186 | -108.50135 | 37819 ft | 361 kts | 237° |
| 2026-04-26 01:03 | 35.68105 | -108.55008 | 37875 ft | 361 kts | 237° |
| 2026-04-26 01:03 | 35.65018 | -108.59882 | 37908 ft | 360 kts | 237° |
| 2026-04-26 01:04 | 35.61937 | -108.64743 | 37949 ft | 361 kts | 237° |
| 2026-04-26 01:04 | 35.58854 | -108.69597 | 37993 ft | 360 kts | 237° |
| 2026-04-26 01:05 | 35.55769 | -108.74450 | 38014 ft | 360 kts | 237° |
| 2026-04-26 01:05 | 35.52705 | -108.79264 | 38009 ft | 360 kts | 237° |
| 2026-04-26 01:06 | 35.49621 | -108.84103 | 38011 ft | 359 kts | 237° |
| 2026-04-26 01:06 | 35.46342 | -108.88772 | 38015 ft | 363 kts | 232° |
| 2026-04-26 01:07 | 35.42852 | -108.93242 | 37963 ft | 362 kts | 232° |
| 2026-04-26 01:07 | 35.39392 | -108.97723 | 37935 ft | 361 kts | 232° |
| 2026-04-26 01:08 | 35.35957 | -109.02178 | 37899 ft | 361 kts | 232° |
| 2026-04-26 01:08 | 35.32509 | -109.06648 | 37852 ft | 360 kts | 232° |
| 2026-04-26 01:09 | 35.29060 | -109.11111 | 37864 ft | 360 kts | 232° |
| 2026-04-26 01:09 | 35.25615 | -109.15563 | 37867 ft | 360 kts | 232° |
| 2026-04-26 01:10 | 35.22171 | -109.20010 | 37860 ft | 359 kts | 232° |
| 2026-04-26 01:10 | 35.18730 | -109.24446 | 37853 ft | 359 kts | 232° |
| 2026-04-26 01:11 | 35.15307 | -109.28853 | 37841 ft | 359 kts | 232° |
| 2026-04-26 01:11 | 35.11857 | -109.33288 | 37819 ft | 359 kts | 232° |
| 2026-04-26 01:12 | 35.08416 | -109.37707 | 37796 ft | 359 kts | 232° |
| 2026-04-26 01:12 | 35.04980 | -109.42113 | 37793 ft | 358 kts | 232° |
| 2026-04-26 01:13 | 35.01560 | -109.46492 | 37791 ft | 358 kts | 232° |
| 2026-04-26 01:13 | 34.98115 | -109.50899 | 37793 ft | 358 kts | 232° |
| 2026-04-26 01:14 | 34.94672 | -109.55297 | 37787 ft | 358 kts | 232° |
| 2026-04-26 01:14 | 34.91235 | -109.59680 | 37794 ft | 357 kts | 231° |
| 2026-04-26 01:15 | 34.87799 | -109.64059 | 37796 ft | 357 kts | 231° |
| 2026-04-26 01:15 | 34.84365 | -109.68431 | 37791 ft | 357 kts | 231° |
| 2026-04-26 01:16 | 34.80948 | -109.72784 | 37797 ft | 357 kts | 231° |
| 2026-04-26 01:16 | 34.77518 | -109.77149 | 37797 ft | 357 kts | 231° |
| 2026-04-26 01:17 | 34.74087 | -109.81511 | 37800 ft | 356 kts | 231° |
| 2026-04-26 01:17 | 34.70892 | -109.86012 | 37809 ft | 348 kts | 244° |
| 2026-04-26 01:18 | 34.68773 | -109.91307 | 37854 ft | 349 kts | 246° |
| 2026-04-26 01:18 | 34.66718 | -109.96663 | 37883 ft | 349 kts | 246° |
| 2026-04-26 01:19 | 34.64701 | -110.02030 | 37910 ft | 349 kts | 246° |
| 2026-04-26 01:19 | 34.62691 | -110.07407 | 37935 ft | 349 kts | 246° |
| 2026-04-26 01:20 | 34.60681 | -110.12780 | 37949 ft | 349 kts | 246° |
| 2026-04-26 01:20 | 34.58668 | -110.18154 | 37956 ft | 349 kts | 246° |
| 2026-04-26 01:21 | 34.56651 | -110.23530 | 37950 ft | 352 kts | 246° |
| 2026-04-26 01:21 | 34.55628 | -110.26252 | 37266 ft | 354 kts | 246° |
| 2026-04-26 01:21 | 34.54612 | -110.28956 | 36428 ft | 358 kts | 246° |
| 2026-04-26 01:22 | 34.53577 | -110.31705 | 35702 ft | 359 kts | 246° |
| 2026-04-26 01:22 | 34.52540 | -110.34460 | 34988 ft | 360 kts | 246° |
| 2026-04-26 01:22 | 34.51498 | -110.37224 | 34264 ft | 361 kts | 246° |
| 2026-04-26 01:22 | 34.50447 | -110.40012 | 33466 ft | 363 kts | 246° |
| 2026-04-26 01:23 | 34.49393 | -110.42800 | 32707 ft | 364 kts | 246° |
| 2026-04-26 01:23 | 34.48346 | -110.45569 | 32262 ft | 357 kts | 246° |
| 2026-04-26 01:23 | 34.47310 | -110.48309 | 31922 ft | 359 kts | 246° |
| 2026-04-26 01:23 | 34.46266 | -110.51065 | 31528 ft | 359 kts | 246° |
| 2026-04-26 01:24 | 34.45239 | -110.53776 | 31102 ft | 359 kts | 246° |
| 2026-04-26 01:24 | 34.44184 | -110.56556 | 30668 ft | 359 kts | 246° |
| 2026-04-26 01:24 | 34.43153 | -110.59272 | 30259 ft | 359 kts | 246° |
| 2026-04-26 01:24 | 34.42107 | -110.62023 | 29813 ft | 359 kts | 246° |
| 2026-04-26 01:25 | 34.41063 | -110.64769 | 29332 ft | 359 kts | 246° |
| 2026-04-26 01:25 | 34.40018 | -110.67515 | 28897 ft | 357 kts | 246° |
| 2026-04-26 01:25 | 34.38981 | -110.70238 | 28484 ft | 356 kts | 246° |
| 2026-04-26 01:25 | 34.37947 | -110.72948 | 28075 ft | 354 kts | 246° |
| 2026-04-26 01:26 | 34.36918 | -110.75645 | 27661 ft | 352 kts | 246° |
| 2026-04-26 01:26 | 34.35883 | -110.78326 | 27237 ft | 350 kts | 243° |
| 2026-04-26 01:26 | 34.34464 | -110.80662 | 26777 ft | 350 kts | 229° |
| 2026-04-26 01:26 | 34.32820 | -110.82806 | 26408 ft | 347 kts | 231° |
| 2026-04-26 01:27 | 34.31188 | -110.84972 | 26009 ft | 347 kts | 231° |
| 2026-04-26 01:27 | 34.29544 | -110.87127 | 25617 ft | 346 kts | 230° |
| 2026-04-26 01:27 | 34.27910 | -110.89253 | 25214 ft | 344 kts | 230° |
| 2026-04-26 01:27 | 34.26282 | -110.91363 | 24818 ft | 342 kts | 230° |
| 2026-04-26 01:28 | 34.24661 | -110.93460 | 24425 ft | 340 kts | 230° |
| 2026-04-26 01:28 | 34.23065 | -110.95523 | 24032 ft | 339 kts | 230° |
| 2026-04-26 01:28 | 34.21456 | -110.97600 | 23650 ft | 337 kts | 230° |
| 2026-04-26 01:28 | 34.19857 | -110.99662 | 23228 ft | 335 kts | 230° |
| 2026-04-26 01:29 | 34.18270 | -111.01708 | 22785 ft | 332 kts | 230° |
| 2026-04-26 01:29 | 34.16698 | -111.03733 | 22395 ft | 329 kts | 230° |
| 2026-04-26 01:29 | 34.15142 | -111.05737 | 22008 ft | 325 kts | 230° |
| 2026-04-26 01:29 | 34.14121 | -111.07052 | 21763 ft | 323 kts | 230° |
| 2026-04-26 01:30 | 34.12584 | -111.09029 | 21346 ft | 322 kts | 230° |
| 2026-04-26 01:30 | 34.11053 | -111.10997 | 20953 ft | 319 kts | 230° |
| 2026-04-26 01:30 | 34.09539 | -111.12943 | 20611 ft | 319 kts | 230° |
| 2026-04-26 01:30 | 34.07533 | -111.15521 | 20123 ft | 318 kts | 230° |
| 2026-04-26 01:31 | 34.06508 | -111.16836 | 19872 ft | 317 kts | 230° |
| 2026-04-26 01:31 | 34.05000 | -111.18770 | 19501 ft | 316 kts | 230° |
| 2026-04-26 01:31 | 34.03517 | -111.20670 | 19129 ft | 314 kts | 229° |
| 2026-04-26 01:31 | 34.02024 | -111.22585 | 18768 ft | 313 kts | 229° |
| 2026-04-26 01:32 | 34.00533 | -111.24493 | 18388 ft | 312 kts | 229° |
| 2026-04-26 01:32 | 33.99049 | -111.26393 | 18000 ft | 310 kts | 229° |
| 2026-04-26 01:32 | 33.97579 | -111.28278 | 17589 ft | 308 kts | 229° |
| 2026-04-26 01:32 | 33.96104 | -111.30159 | 17196 ft | 308 kts | 230° |
| 2026-04-26 01:33 | 33.94642 | -111.32032 | 16938 ft | 307 kts | 229° |
| 2026-04-26 01:33 | 33.93182 | -111.33894 | 16620 ft | 306 kts | 229° |
| 2026-04-26 01:33 | 33.91725 | -111.35755 | 16263 ft | 304 kts | 229° |
| 2026-04-26 01:33 | 33.90279 | -111.37598 | 15905 ft | 300 kts | 229° |
| 2026-04-26 01:34 | 33.88860 | -111.39411 | 15555 ft | 296 kts | 229° |
| 2026-04-26 01:34 | 33.87343 | -111.41086 | 15171 ft | 297 kts | 218° |
| 2026-04-26 01:34 | 33.85664 | -111.42504 | 14846 ft | 294 kts | 219° |
| 2026-04-26 01:34 | 33.84006 | -111.43927 | 14497 ft | 292 kts | 219° |
| 2026-04-26 01:35 | 33.82358 | -111.45343 | 14173 ft | 291 kts | 219° |
| 2026-04-26 01:35 | 33.80733 | -111.46739 | 13831 ft | 289 kts | 219° |
| 2026-04-26 01:35 | 33.79095 | -111.48148 | 13448 ft | 289 kts | 219° |
| 2026-04-26 01:35 | 33.77453 | -111.49558 | 12956 ft | 291 kts | 219° |
| 2026-04-26 01:36 | 33.75810 | -111.50970 | 12541 ft | 289 kts | 219° |
| 2026-04-26 01:36 | 33.74175 | -111.52374 | 12152 ft | 287 kts | 218° |
| 2026-04-26 01:36 | 33.72553 | -111.53767 | 11745 ft | 284 kts | 218° |
| 2026-04-26 01:37 | 33.69350 | -111.56515 | 10970 ft | 282 kts | 218° |
| 2026-04-26 01:37 | 33.67778 | -111.57864 | 10586 ft | 279 kts | 217° |
| 2026-04-26 01:37 | 33.66198 | -111.59218 | 10189 ft | 277 kts | 217° |
| 2026-04-26 01:37 | 33.64652 | -111.60542 | 9980 ft | 267 kts | 217° |
| 2026-04-26 01:38 | 33.63173 | -111.61781 | 9932 ft | 253 kts | 217° |
| 2026-04-26 01:38 | 33.61758 | -111.62967 | 9780 ft | 243 kts | 217° |
| 2026-04-26 01:38 | 33.60396 | -111.64107 | 9540 ft | 237 kts | 217° |
| 2026-04-26 01:38 | 33.59040 | -111.65242 | 9121 ft | 238 kts | 217° |
| 2026-04-26 01:39 | 33.57680 | -111.66380 | 8711 ft | 238 kts | 216° |
| 2026-04-26 01:39 | 33.56319 | -111.67520 | 8299 ft | 239 kts | 216° |
| 2026-04-26 01:39 | 33.54977 | -111.68653 | 7910 ft | 240 kts | 216° |
| 2026-04-26 01:39 | 33.53595 | -111.69821 | 7484 ft | 240 kts | 216° |
| 2026-04-26 01:40 | 33.52229 | -111.70975 | 7103 ft | 240 kts | 216° |
| 2026-04-26 01:40 | 33.50881 | -111.72112 | 6713 ft | 239 kts | 216° |
| 2026-04-26 01:40 | 33.49527 | -111.73256 | 6318 ft | 238 kts | 216° |
| 2026-04-26 01:40 | 33.48173 | -111.74395 | 5907 ft | 237 kts | 216° |
| 2026-04-26 01:41 | 33.46809 | -111.75517 | 5483 ft | 238 kts | 212° |
| 2026-04-26 01:41 | 33.45350 | -111.76461 | 5113 ft | 237 kts | 209° |
| 2026-04-26 01:41 | 33.43894 | -111.77361 | 4773 ft | 233 kts | 209° |
| 2026-04-26 01:41 | 33.42635 | -111.78525 | 4423 ft | 228 kts | 233° |
| 2026-04-26 01:42 | 33.42037 | -111.80235 | 4127 ft | 222 kts | 263° |
| 2026-04-26 01:42 | 33.42233 | -111.82037 | 3867 ft | 220 kts | 288° |
| 2026-04-26 01:42 | 33.42797 | -111.83706 | 3620 ft | 217 kts | 290° |
| 2026-04-26 01:42 | 33.43327 | -111.85376 | 3354 ft | 210 kts | 286° |
| 2026-04-26 01:43 | 33.43717 | -111.86992 | 3084 ft | 196 kts | 281° |
| 2026-04-26 01:43 | 33.43973 | -111.88529 | 2870 ft | 179 kts | 277° |
| 2026-04-26 01:43 | 33.44069 | -111.89966 | 2674 ft | 167 kts | 270° |
| 2026-04-26 01:43 | 33.44077 | -111.91291 | 2464 ft | 149 kts | 268° |
| 2026-04-26 01:44 | 33.44074 | -111.92511 | 2284 ft | 145 kts | 269° |
| 2026-04-26 01:44 | 33.44072 | -111.93724 | 2056 ft | 146 kts | 269° |
| 2026-04-26 01:44 | 33.44073 | -111.94938 | 1864 ft | 146 kts | 270° |
| 2026-04-26 01:44 | 33.44082 | -111.96147 | 1703 ft | 146 kts | 270° |
| 2026-04-26 01:45 | 33.44089 | -111.97360 | 1530 ft | 145 kts | 270° |
| 2026-04-26 01:45 | 33.44084 | -111.98560 | 1288 ft | 144 kts | 271° |
| 2026-04-26 01:45 | 33.44085 | -111.99750 | 1139 ft | 139 kts | 271° |
| 2026-04-26 01:45 | 33.44084 | -112.00724 | 1126 ft | 84 kts | 270° |
| 2026-04-26 01:46 | 33.44085 | -112.01176 | 1129 ft | 31 kts | 270° |
| 2026-04-26 01:46 | 33.44056 | -112.01336 | 1131 ft | 16 kts | 228° |
| 2026-04-26 01:46 | 33.43967 | -112.01427 | 1123 ft | 16 kts | 202° |
| 2026-04-26 01:46 | 33.43901 | -112.01361 | 1127 ft | 16 kts | 90° |
| 2026-04-26 01:47 | 33.43902 | -112.01222 | 1127 ft | 18 kts | 90° |
| 2026-04-26 01:47 | 33.43900 | -112.01068 | 1127 ft | 20 kts | 90° |
| 2026-04-26 01:47 | 33.43901 | -112.00898 | 1127 ft | 21 kts | 90° |
| 2026-04-26 01:47 | 33.43901 | -112.00714 | 1126 ft | 23 kts | 90° |
| 2026-04-26 01:48 | 33.43900 | -112.00518 | 1126 ft | 24 kts | 90° |
| 2026-04-26 01:48 | 33.43880 | -112.00386 | 1125 ft | 16 kts | 151° |
| 2026-04-26 01:48 | 33.43765 | -112.00380 | 1119 ft | 19 kts | 180° |
| 2026-04-26 01:48 | 33.43610 | -112.00380 | 1124 ft | 26 kts | 180° |
| 2026-04-26 01:49 | 33.43441 | -112.00380 | 1121 ft | 19 kts | 179° |
| 2026-04-26 01:49 | 33.43315 | -112.00372 | 1124 ft | 18 kts | 157° |
| 2026-04-26 01:49 | 33.43283 | -112.00231 | 1124 ft | 20 kts | 90° |
| 2026-04-26 01:49 | 33.43283 | -112.00060 | 1127 ft | 21 kts | 91° |
| 2026-04-26 01:50 | 33.43282 | -111.99999 | 1123 ft | 22 kts | 90° |
| 2026-04-26 01:50 | 33.43320 | -111.99826 | 1119 ft | 12 kts | 8° |
| 2026-04-26 01:50 | 33.43400 | -111.99819 | 1121 ft | 10 kts | 13° |
| 2026-04-26 01:50 | 33.43433 | -111.99775 | 1124 ft | 3 kts | 88° |
| 2026-04-26 01:51 | 33.43432 | -111.99744 | 1119 ft | 2 kts | 91° |
| 2026-04-26 01:51 | 33.43432 | -111.99742 | 1119 ft | 0 kts | 91° |